Time;durP1;ratioP1;P1;durP2;ratioP2;P2;SDS_P1;SDS_P2;PMS_P1;PMS_P2;Temp;Humidity;BMP_temperature;BMP_pressure;BME280_temperature;BME280_humidity;BME280_pressure;Samples;Min_cycle;Max_cycle;Signal;HPM_P1;HPM_P2
2022/01/22 00:00:39;;;;;;;21.55;2.83;;;6.60;99.90;;;;;;5057699;28;20441;-69
2022/01/22 00:03:05;;;;;;;37.10;3.92;;;6.60;99.90;;;;;;5048663;28;20041;-68
2022/01/22 00:05:47;;;;;;;31.35;2.95;;;6.60;99.90;;;;;;5064209;28;20124;-67
2022/01/22 00:08:12;;;;;;;24.70;3.78;;;6.60;99.90;;;;;;5091467;28;20170;-65
2022/01/22 00:10:41;;;;;;;34.28;3.88;;;6.60;99.90;;;;;;5064788;28;20063;-67
2022/01/22 00:14:23;;;;;;;24.20;3.10;;;6.60;99.90;;;;;;5068675;28;20044;-67
2022/01/22 00:15:53;;;;;;;19.95;2.88;;;6.60;99.90;;;;;;5063817;28;20087;-69
2022/01/22 00:18:19;;;;;;;22.42;3.28;;;6.60;99.90;;;;;;5068244;28;20073;-70
2022/01/22 00:20:46;;;;;;;20.13;2.90;;;6.60;99.90;;;;;;5077782;28;20044;-67
2022/01/22 00:23:16;;;;;;;19.40;2.67;;;6.60;99.90;;;;;;5051062;28;20041;-66
2022/01/22 00:25:41;;;;;;;21.38;2.35;;;6.60;99.90;;;;;;5044291;28;20033;-67
2022/01/22 00:28:07;;;;;;;21.35;3.05;;;6.60;99.90;;;;;;5058643;28;20040;-70
2022/01/22 00:30:33;;;;;;;28.02;3.38;;;6.60;99.90;;;;;;5062879;28;20045;-66
2022/01/22 00:32:58;;;;;;;11.43;2.55;;;6.60;99.90;;;;;;5062342;28;20037;-66
2022/01/22 00:35:25;;;;;;;20.65;3.05;;;6.60;99.90;;;;;;5046735;28;20068;-67
2022/01/22 00:37:51;;;;;;;19.85;3.38;;;6.60;99.90;;;;;;5053118;28;20048;-66
2022/01/22 00:40:20;;;;;;;24.80;3.05;;;6.60;99.90;;;;;;5058759;28;20174;-67
2022/01/22 00:42:46;;;;;;;26.33;3.92;;;6.60;99.90;;;;;;5064496;28;20409;-67
2022/01/22 00:45:13;;;;;;;20.40;3.00;;;6.60;99.90;;;;;;5065084;28;20060;-67
2022/01/22 00:47:39;;;;;;;24.35;3.30;;;6.60;99.90;;;;;;5065545;28;20063;-69
2022/01/22 00:50:08;;;;;;;25.90;2.65;;;6.70;99.90;;;;;;5061124;28;20040;-69
2022/01/22 00:52:34;;;;;;;22.50;3.10;;;6.60;99.90;;;;;;5066110;28;20057;-68
2022/01/22 00:54:59;;;;;;;24.05;2.53;;;6.60;99.90;;;;;;5090451;28;20090;-68
2022/01/22 00:57:25;;;;;;;11.70;2.22;;;6.60;99.90;;;;;;5059209;28;20066;-68
2022/01/22 00:59:51;;;;;;;12.20;2.60;;;6.60;99.90;;;;;;5061265;28;20120;-67
2022/01/22 01:02:16;;;;;;;18.65;2.65;;;6.60;99.90;;;;;;5061675;28;20072;-66
2022/01/22 01:04:42;;;;;;;16.45;2.58;;;6.60;99.90;;;;;;5073565;28;20091;-68
2022/01/22 01:07:07;;;;;;;15.05;2.38;;;6.60;99.90;;;;;;5061927;28;20253;-69
2022/01/22 01:09:36;;;;;;;17.15;2.55;;;7.90;99.90;;;;;;5056247;28;20054;-67
2022/01/22 01:12:05;;;;;;;13.73;2.17;;;6.60;99.90;;;;;;5063270;28;20077;-68
2022/01/22 01:14:38;;;;;;;14.85;1.98;;;6.60;99.90;;;;;;5061899;28;20029;-72
2022/01/22 01:35:50;;;;;;;15.23;1.83;;;6.70;99.90;;;;;;5063074;28;20049;-68
2022/01/22 01:38:19;;;;;;;14.18;2.50;;;7.40;99.90;;;;;;5044471;28;20052;-67
2022/01/22 01:40:53;;;;;;;14.40;2.10;;;6.70;99.90;;;;;;5050212;28;20053;-69
2022/01/22 01:43:24;;;;;;;14.80;2.17;;;6.70;99.90;;;;;;5059196;28;20101;-68
2022/01/22 01:45:50;;;;;;;16.95;2.30;;;6.60;99.90;;;;;;5065021;28;20104;-71
2022/01/22 01:48:21;;;;;;;19.05;2.30;;;6.60;99.90;;;;;;5064891;28;20045;-70
2022/01/22 01:50:47;;;;;;;13.38;2.13;;;6.60;99.90;;;;;;5072901;28;20464;-66
2022/01/22 01:53:24;;;;;;;10.63;2.22;;;6.60;99.90;;;;;;5068718;28;20131;-71
2022/01/22 01:58:17;;;;;;;13.85;1.80;;;6.60;99.90;;;;;;5065005;28;20041;-67
2022/01/22 02:00:43;;;;;;;10.77;1.80;;;6.60;99.90;;;;;;5065771;28;20345;-68
2022/01/22 02:03:12;;;;;;;13.73;2.15;;;6.60;99.90;;;;;;5067076;28;20037;-70
2022/01/22 02:05:38;;;;;;;11.82;1.75;;;6.60;99.90;;;;;;5062114;28;20052;-69
2022/01/22 02:08:05;;;;;;;20.52;2.22;;;6.60;99.90;;;;;;5053455;28;20050;-67
2022/01/22 02:10:34;;;;;;;19.02;2.00;;;6.60;99.90;;;;;;5067907;28;20128;-68
2022/01/22 02:13:41;;;;;;;22.05;2.90;;;6.50;99.90;;;;;;5066674;28;20041;-69
2022/01/22 02:24:01;;;;;;;20.75;2.97;;;6.50;99.90;;;;;;5082736;28;20056;-68
2022/01/22 02:26:28;;;;;;;20.83;2.72;;;6.50;99.90;;;;;;5076486;28;20044;-68
2022/01/22 02:28:54;;;;;;;20.17;2.57;;;6.50;99.90;;;;;;5079165;28;20061;-67
2022/01/22 02:38:51;;;;;;;18.17;2.60;;;6.40;99.90;;;;;;5068769;28;20057;-67
2022/01/22 02:41:19;;;;;;;14.48;2.60;;;6.40;99.90;;;;;;5078349;28;20046;-66
2022/01/22 02:43:47;;;;;;;;;;;6.40;99.90;;;;;;5073371;28;20045;-68
2022/01/22 02:46:16;;;;;;;14.65;2.42;;;6.40;99.90;;;;;;5055961;28;19948;-68
2022/01/22 02:48:42;;;;;;;12.05;1.85;;;6.40;99.90;;;;;;5079274;28;20052;-66
2022/01/22 02:51:07;;;;;;;18.27;2.22;;;6.40;99.90;;;;;;5081985;28;20041;-71
2022/01/22 02:53:33;;;;;;;18.40;2.80;;;6.40;99.90;;;;;;5072267;28;20049;-68
2022/01/22 02:55:59;;;;;;;9.85;2.00;;;6.40;99.90;;;;;;5077033;28;20104;-68
2022/01/22 02:58:25;;;;;;;19.52;2.55;;;6.40;99.90;;;;;;5072211;28;20169;-67
2022/01/22 03:00:51;;;;;;;12.48;2.60;;;6.40;99.90;;;;;;5076046;28;20052;-71
2022/01/22 03:03:16;;;;;;;18.50;2.40;;;6.30;99.90;;;;;;5073850;28;20070;-69
2022/01/22 03:05:42;;;;;;;23.20;2.60;;;6.40;99.90;;;;;;5068193;28;20045;-68
2022/01/22 03:08:10;;;;;;;19.70;3.42;;;6.40;99.90;;;;;;5073509;28;20055;-68
2022/01/22 03:10:36;;;;;;;21.58;2.50;;;6.40;99.90;;;;;;5068978;28;20053;-67
2022/01/22 03:15:54;;;;;;;13.45;1.80;;;6.40;99.90;;;;;;5077105;28;20046;-67
2022/01/22 03:21:15;;;;;;;9.82;1.60;;;6.40;99.90;;;;;;5072630;28;20121;-70
2022/01/22 03:29:15;;;;;;;14.48;2.00;;;6.50;99.90;;;;;;5074279;28;20049;-68
2022/01/22 03:31:42;;;;;;;11.63;2.13;;;6.40;99.90;;;;;;5071886;28;20461;-69
2022/01/22 03:34:08;;;;;;;12.48;1.63;;;6.40;99.90;;;;;;5075256;28;20078;-66
2022/01/22 03:36:34;;;;;;;13.10;1.88;;;6.40;99.90;;;;;;5086425;28;20037;-68
2022/01/22 03:39:01;;;;;;;10.98;1.90;;;6.40;99.90;;;;;;5072243;28;20033;-67
2022/01/22 03:41:27;;;;;;;14.15;1.77;;;6.40;99.90;;;;;;5073954;28;20047;-72
2022/01/22 03:43:53;;;;;;;7.97;1.40;;;6.40;99.90;;;;;;5076605;28;20522;-70
2022/01/22 03:46:19;;;;;;;10.15;2.10;;;6.50;99.90;;;;;;5076132;28;20029;-70
2022/01/22 03:48:45;;;;;;;13.68;1.67;;;6.40;99.90;;;;;;5074512;28;20045;-68
2022/01/22 03:51:11;;;;;;;18.13;2.03;;;6.40;99.90;;;;;;5068851;28;20039;-70
2022/01/22 03:53:40;;;;;;;7.68;1.92;;;6.40;99.90;;;;;;5071455;28;21907;-67
2022/01/22 03:56:07;;;;;;;7.43;1.60;;;6.40;99.90;;;;;;5068441;28;20063;-67
2022/01/22 03:58:36;;;;;;;9.55;2.00;;;6.50;99.90;;;;;;5073057;28;20056;-69
2022/01/22 04:03:44;;;;;;;14.07;1.75;;;6.40;99.90;;;;;;5062628;28;20130;-66
2022/01/22 04:08:56;;;;;;;12.38;2.83;;;6.40;99.90;;;;;;5069672;28;20305;-67
2022/01/22 04:11:22;;;;;;;15.23;2.35;;;6.40;99.90;;;;;;5076464;28;20045;-71
2022/01/22 04:13:51;;;;;;;11.55;2.47;;;6.30;99.90;;;;;;5071372;28;20059;-67
2022/01/22 04:16:17;;;;;;;17.00;2.38;;;6.40;99.90;;;;;;5081258;28;20043;-67
2022/01/22 04:26:58;;;;;;;12.45;1.92;;;6.30;99.90;;;;;;5077118;28;20048;-69
2022/01/22 04:29:26;;;;;;;7.97;1.13;;;6.30;99.90;;;;;;5065407;28;20045;-68
2022/01/22 04:31:53;;;;;;;11.55;1.88;;;6.30;99.90;;;;;;5072693;28;20045;-70
2022/01/22 04:34:19;;;;;;;10.93;1.58;;;6.30;99.90;;;;;;5068928;28;20037;-67
2022/01/22 04:36:45;;;;;;;9.98;1.67;;;6.30;99.90;;;;;;5066500;28;20048;-69
2022/01/22 04:39:11;;;;;;;7.43;1.40;;;6.30;99.90;;;;;;5068350;28;20041;-68
2022/01/22 04:41:37;;;;;;;7.28;1.20;;;6.30;99.90;;;;;;5065921;28;20094;-69
2022/01/22 04:44:05;;;;;;;8.60;1.23;;;6.30;99.90;;;;;;5065767;28;20033;-71
2022/01/22 04:49:13;;;;;;;11.77;1.60;;;6.30;99.90;;;;;;5069937;28;20040;-68
2022/01/22 04:57:08;;;;;;;13.05;1.73;;;6.30;99.90;;;;;;5073789;28;20101;-70
2022/01/22 04:59:34;;;;;;;11.90;1.70;;;6.20;99.90;;;;;;5065415;28;20100;-69
2022/01/22 05:02:00;;;;;;;13.68;2.10;;;6.30;99.90;;;;;;5064077;28;20037;-67
2022/01/22 05:04:25;;;;;;;8.40;2.00;;;6.30;99.90;;;;;;5066457;28;20051;-69
2022/01/22 05:06:51;;;;;;;11.07;2.00;;;6.30;99.90;;;;;;5067289;28;20092;-67
2022/01/22 05:09:17;;;;;;;13.25;2.30;;;6.30;99.90;;;;;;5064890;28;20041;-66
2022/01/22 05:11:42;;;;;;;14.02;2.20;;;6.30;99.90;;;;;;5063520;28;20096;-66
2022/01/22 05:14:08;;;;;;;16.92;2.40;;;6.30;99.90;;;;;;5071804;28;20105;-68
2022/01/22 05:16:34;;;;;;;16.40;2.63;;;6.30;99.90;;;;;;5066103;28;20033;-69
2022/01/22 05:21:26;;;;;;;14.13;2.40;;;6.40;99.90;;;;;;5061938;28;20053;-68
2022/01/22 05:23:54;;;;;;;11.68;1.85;;;6.40;99.90;;;;;;5063276;28;20055;-67
2022/01/22 05:29:24;;;;;;;9.98;1.90;;;6.40;99.90;;;;;;5054299;28;20052;-68
2022/01/22 05:39:25;;;;;;;10.25;1.85;;;6.30;99.90;;;;;;5071643;28;20083;-67
2022/01/22 05:41:51;;;;;;;10.52;1.75;;;6.40;99.90;;;;;;5061264;28;20044;-70
2022/01/22 05:44:17;;;;;;;19.27;2.00;;;6.40;99.90;;;;;;5081119;28;20041;-67
2022/01/22 05:46:43;;;;;;;13.00;1.80;;;6.30;99.90;;;;;;5064342;28;20060;-67
2022/01/22 05:49:09;;;;;;;13.85;1.63;;;6.30;99.90;;;;;;5070286;28;20143;-67
2022/01/22 05:51:37;;;;;;;14.40;2.22;;;6.30;99.90;;;;;;5071814;28;20044;-70
2022/01/22 05:59:37;;;;;;;15.35;2.13;;;6.30;99.90;;;;;;5072533;28;20052;-69
2022/01/22 06:02:14;;;;;;;14.82;2.10;;;6.30;99.90;;;;;;5066573;28;20464;-71
2022/01/22 06:04:43;;;;;;;14.75;2.20;;;6.30;99.90;;;;;;5082058;28;20064;-69
2022/01/22 06:07:09;;;;;;;10.27;1.83;;;6.30;99.90;;;;;;5075754;28;20113;-69
2022/01/22 06:09:39;;;;;;;11.05;1.90;;;6.30;99.90;;;;;;5072076;28;20036;-69
2022/01/22 06:14:34;;;;;;;16.00;2.67;;;6.30;99.90;;;;;;5077084;28;20460;-71
2022/01/22 06:17:00;;;;;;;11.07;2.55;;;6.30;99.90;;;;;;5074915;28;20075;-71
2022/01/22 06:19:26;;;;;;;14.35;2.38;;;6.30;99.90;;;;;;5074268;28;20037;-68
2022/01/22 06:21:52;;;;;;;19.15;2.33;;;6.30;99.90;;;;;;5070923;28;20175;-68
2022/01/22 06:24:19;;;;;;;16.90;2.67;;;6.30;99.90;;;;;;5072378;28;20052;-67
2022/01/22 06:26:44;;;;;;;17.17;2.38;;;6.30;99.90;;;;;;5069692;28;20040;-68
2022/01/22 06:29:10;;;;;;;12.63;2.42;;;6.30;99.90;;;;;;5070773;28;20051;-71
2022/01/22 06:31:36;;;;;;;18.77;3.08;;;6.30;99.90;;;;;;5070956;28;20512;-68
2022/01/22 06:34:04;;;;;;;12.80;2.42;;;6.30;99.90;;;;;;5071782;28;20048;-71
2022/01/22 06:36:30;;;;;;;17.05;3.05;;;6.30;99.90;;;;;;5070751;28;20033;-71
2022/01/22 06:39:09;;;;;;;15.45;2.53;;;6.30;99.90;;;;;;5068795;28;20040;-70
2022/01/22 06:41:44;;;;;;;9.85;2.13;;;6.30;99.90;;;;;;5089673;28;20109;-67
2022/01/22 06:44:18;;;;;;;13.90;2.50;;;6.30;99.90;;;;;;5066004;28;20037;-68
2022/01/22 06:46:47;;;;;;;11.02;2.35;;;6.30;99.90;;;;;;5095172;28;20037;-69
2022/01/22 06:49:13;;;;;;;12.23;2.25;;;6.30;99.90;;;;;;5061456;28;20102;-68
2022/01/22 06:51:39;;;;;;;13.02;2.63;;;6.30;99.90;;;;;;5064295;28;20032;-68
2022/01/22 06:54:07;;;;;;;7.07;2.20;;;6.30;99.90;;;;;;5058258;28;20063;-67
2022/01/22 06:56:32;;;;;;;13.32;2.58;;;6.30;99.90;;;;;;5056342;28;20049;-68
2022/01/22 06:58:59;;;;;;;18.73;2.75;;;6.30;99.90;;;;;;5066247;28;20101;-70
2022/01/22 07:01:26;;;;;;;12.77;2.47;;;6.20;99.90;;;;;;5057519;28;20048;-68
2022/01/22 07:03:52;;;;;;;11.95;2.53;;;6.20;99.90;;;;;;5052229;28;20037;-67
2022/01/22 07:06:18;;;;;;;9.82;2.80;;;6.30;99.90;;;;;;5093568;28;20053;-70
2022/01/22 07:08:44;;;;;;;11.23;2.60;;;6.20;99.90;;;;;;5060048;28;20052;-66
2022/01/22 07:11:10;;;;;;;10.48;2.15;;;6.20;99.90;;;;;;5065335;28;20071;-68
2022/01/22 07:13:36;;;;;;;11.73;2.15;;;6.20;99.90;;;;;;5066375;28;20037;-70
2022/01/22 07:16:01;;;;;;;6.97;1.92;;;6.20;99.90;;;;;;5072566;28;20068;-70
2022/01/22 07:18:29;;;;;;;8.18;2.10;;;6.20;99.90;;;;;;5068820;28;20048;-68
2022/01/22 07:20:55;;;;;;;10.75;2.03;;;6.20;99.90;;;;;;5067962;28;20105;-66
2022/01/22 07:25:46;;;;;;;6.90;2.78;;;6.20;99.90;;;;;;5062316;28;20033;-67
2022/01/22 07:28:13;;;;;;;10.85;2.78;;;6.10;99.90;;;;;;5046762;28;20048;-71
2022/01/22 07:30:39;;;;;;;15.70;2.22;;;6.20;99.90;;;;;;5087050;28;20038;-71
2022/01/22 07:33:06;;;;;;;9.93;2.72;;;6.20;99.90;;;;;;5063663;28;20064;-70
2022/01/22 07:35:34;;;;;;;9.13;2.60;;;6.10;99.90;;;;;;5062556;28;20071;-70
2022/01/22 07:38:03;;;;;;;11.10;2.40;;;6.10;99.90;;;;;;5045519;28;20110;-69
2022/01/22 07:40:29;;;;;;;10.27;2.22;;;6.10;99.90;;;;;;5066129;28;20394;-69
2022/01/22 07:42:55;;;;;;;13.98;2.28;;;6.10;99.90;;;;;;5056796;28;20045;-69
2022/01/22 07:45:21;;;;;;;8.70;2.63;;;6.10;99.90;;;;;;5061680;28;20109;-71
2022/01/22 07:47:47;;;;;;;11.77;2.17;;;6.10;99.90;;;;;;5057555;28;20068;-68
2022/01/22 07:50:13;;;;;;;14.48;2.10;;;6.20;99.90;;;;;;5062453;28;20041;-70
2022/01/22 07:52:38;;;;;;;12.38;2.15;;;6.10;99.90;;;;;;5070860;28;20032;-72
2022/01/22 07:55:06;;;;;;;10.02;2.33;;;6.10;99.90;;;;;;5061567;28;20116;-69
2022/01/22 07:57:32;;;;;;;14.15;2.00;;;6.10;99.90;;;;;;5058747;28;20091;-70
2022/01/22 07:59:58;;;;;;;9.20;1.70;;;6.10;99.90;;;;;;5060711;28;20118;-70
2022/01/22 08:02:25;;;;;;;8.90;1.77;;;6.10;99.90;;;;;;5057256;28;20482;-70
2022/01/22 08:04:50;;;;;;;11.00;1.80;;;6.10;99.90;;;;;;5059180;28;20033;-70
2022/01/22 08:07:16;;;;;;;9.20;1.65;;;6.10;99.90;;;;;;5049165;28;20086;-71
2022/01/22 08:09:43;;;;;;;6.20;1.50;;;6.10;99.90;;;;;;5049598;28;20045;-70
2022/01/22 08:12:09;;;;;;;6.40;1.52;;;6.10;99.90;;;;;;5051825;28;20040;-70
2022/01/22 08:14:35;;;;;;;9.98;1.83;;;6.10;99.90;;;;;;5059885;28;20063;-70
2022/01/22 08:17:01;;;;;;;16.55;2.08;;;6.10;99.90;;;;;;5058601;28;20502;-71
2022/01/22 08:19:26;;;;;;;3.35;1.48;;;6.10;99.90;;;;;;5062467;28;20037;-70
2022/01/22 08:21:52;;;;;;;4.07;1.48;;;6.10;99.90;;;;;;5054949;28;20111;-71
2022/01/22 08:24:21;;;;;;;13.50;1.88;;;6.10;99.90;;;;;;5055894;28;20562;-70
2022/01/22 08:26:52;;;;;;;9.15;2.25;;;6.10;99.90;;;;;;5054693;28;20451;-72
2022/01/22 08:29:18;;;;;;;7.65;1.85;;;6.10;99.90;;;;;;5053023;28;20144;-70
2022/01/22 08:32:03;;;;;;;9.60;1.67;;;6.10;99.90;;;;;;5051550;28;20119;-70
2022/01/22 08:37:12;;;;;;;6.72;1.70;;;6.20;99.90;;;;;;5054278;28;20045;-70
2022/01/22 08:39:38;;;;;;;19.02;2.00;;;6.10;99.90;;;;;;5055540;28;20036;-69
2022/01/22 08:42:05;;;;;;;13.77;1.80;;;6.10;99.90;;;;;;5053518;28;20052;-68
2022/01/22 08:44:30;;;;;;;9.20;1.63;;;6.20;99.90;;;;;;5046636;28;20042;-69
2022/01/22 08:46:57;;;;;;;14.88;1.60;;;6.10;99.90;;;;;;5046693;28;20040;-70
2022/01/22 08:49:22;;;;;;;9.40;1.98;;;6.10;99.90;;;;;;5064252;28;20049;-70
2022/01/22 08:51:48;;;;;;;11.88;2.05;;;6.20;99.90;;;;;;5055207;28;20045;-70
2022/01/22 08:54:14;;;;;;;11.75;1.70;;;6.10;99.90;;;;;;5059233;28;20040;-69
2022/01/22 08:56:41;;;;;;;6.25;1.35;;;6.20;99.90;;;;;;5035247;28;20041;-69
2022/01/22 08:59:08;;;;;;;4.45;1.30;;;6.20;99.90;;;;;;5056104;28;20049;-69
2022/01/22 09:01:34;;;;;;;5.57;0.82;;;6.20;99.90;;;;;;5058872;28;20067;-69
2022/01/22 09:04:00;;;;;;;2.70;0.88;;;6.20;99.90;;;;;;5057008;28;20032;-71
2022/01/22 09:06:27;;;;;;;6.57;1.30;;;6.20;99.90;;;;;;5054479;28;20648;-70
2022/01/22 09:08:59;;;;;;;11.23;1.55;;;6.20;99.90;;;;;;5051044;28;20052;-71
2022/01/22 09:11:25;;;;;;;8.80;1.38;;;6.20;99.90;;;;;;5052617;28;20127;-69
2022/01/22 09:13:51;;;;;;;6.75;1.17;;;6.30;99.90;;;;;;5059958;28;20087;-68
2022/01/22 09:16:16;;;;;;;9.60;1.50;;;6.30;99.90;;;;;;5059114;28;20044;-69
2022/01/22 09:18:42;;;;;;;5.93;1.40;;;6.30;99.90;;;;;;5051172;28;20483;-71
2022/01/22 09:21:08;;;;;;;6.32;1.50;;;6.30;99.90;;;;;;5048793;28;20558;-70
2022/01/22 09:23:34;;;;;;;5.18;1.55;;;6.40;99.90;;;;;;5045161;28;20048;-69
2022/01/22 09:26:00;;;;;;;11.63;1.70;;;6.40;99.90;;;;;;5050243;28;20046;-69
2022/01/22 09:28:27;;;;;;;7.93;1.60;;;6.40;99.90;;;;;;5036333;28;20059;-69
2022/01/22 09:30:53;;;;;;;11.63;1.92;;;6.40;99.90;;;;;;5049008;28;20541;-69
2022/01/22 09:33:19;;;;;;;9.63;1.63;;;6.40;99.90;;;;;;5058818;28;20402;-71
2022/01/22 09:35:45;;;;;;;11.07;2.00;;;6.40;99.90;;;;;;5057219;28;20041;-69
2022/01/22 09:38:10;;;;;;;10.68;1.92;;;6.50;99.90;;;;;;5052120;28;20128;-70
2022/01/22 09:40:36;;;;;;;9.90;2.00;;;6.50;99.90;;;;;;5055999;28;20036;-69
2022/01/22 09:43:02;;;;;;;7.82;1.40;;;6.50;99.90;;;;;;5043551;28;20076;-70
2022/01/22 09:45:29;;;;;;;9.30;1.55;;;6.40;99.90;;;;;;5055787;28;20509;-70
2022/01/22 09:47:58;;;;;;;10.55;2.05;;;6.50;99.90;;;;;;5053578;28;20037;-67
2022/01/22 09:50:24;;;;;;;;;;;6.90;99.90;;;;;;5063740;28;20045;-67
2022/01/22 09:52:50;;;;;;;7.20;1.63;;;6.50;99.90;;;;;;5048456;28;19928;-68
2022/01/22 09:55:17;;;;;;;10.93;2.00;;;6.50;99.90;;;;;;5053287;28;20044;-68
2022/01/22 09:57:44;;;;;;;7.57;1.60;;;6.50;99.90;;;;;;5049936;28;20490;-68
2022/01/22 10:00:13;;;;;;;6.10;1.95;;;6.50;99.90;;;;;;5050050;28;20045;-68
2022/01/22 10:02:49;;;;;;;4.30;1.40;;;6.40;99.90;;;;;;5045315;28;20075;-68
2022/01/22 10:05:36;;;;;;;10.05;2.13;;;6.50;99.90;;;;;;5057613;28;20076;-68
2022/01/22 10:08:28;;;;;;;9.80;1.73;;;6.40;99.90;;;;;;5050869;28;20073;-68
2022/01/22 10:10:55;;;;;;;7.65;1.38;;;6.50;99.90;;;;;;5055583;28;20399;-71
2022/01/22 10:13:47;;;;;;;9.50;1.73;;;6.60;99.90;;;;;;5063612;28;20041;-70
2022/01/22 10:16:28;;;;;;;6.95;1.70;;;6.60;99.90;;;;;;5058196;28;20048;-71
2022/01/22 10:19:14;;;;;;;9.57;2.05;;;6.60;99.90;;;;;;5040077;28;20511;-67
2022/01/22 10:22:01;;;;;;;7.80;1.75;;;6.60;99.90;;;;;;5050465;28;20059;-67
2022/01/22 10:24:40;;;;;;;11.05;2.22;;;6.60;99.90;;;;;;5058193;28;20060;-69
2022/01/22 10:27:47;;;;;;;9.73;2.22;;;6.60;99.90;;;;;;5059375;28;20467;-69
2022/01/22 10:30:11;;;;;;;10.38;1.88;;;6.70;99.90;;;;;;5048275;28;20048;-69
2022/01/22 10:32:49;;;;;;;8.07;2.22;;;6.60;99.90;;;;;;5050747;28;20088;-68
2022/01/22 10:35:22;;;;;;;8.97;1.70;;;6.60;99.90;;;;;;5063652;28;20391;-67
2022/01/22 10:37:54;;;;;;;8.65;1.95;;;6.70;99.90;;;;;;5057697;28;20483;-68
2022/01/22 10:40:21;;;;;;;10.98;1.92;;;6.60;99.90;;;;;;5048656;28;20452;-69
2022/01/22 10:42:48;;;;;;;6.60;2.08;;;6.70;99.90;;;;;;5047529;28;20373;-69
2022/01/22 10:45:22;;;;;;;9.10;2.20;;;6.70;99.90;;;;;;5052065;28;20124;-68
2022/01/22 10:47:48;;;;;;;8.20;2.70;;;6.70;99.90;;;;;;5050753;28;20096;-68
2022/01/22 10:50:23;;;;;;;12.18;2.72;;;6.70;99.90;;;;;;5067123;28;20025;-67
2022/01/22 10:52:53;;;;;;;18.02;1.90;;;6.70;99.90;;;;;;5065838;28;20086;-68
2022/01/22 10:55:19;;;;;;;10.07;2.00;;;6.70;99.90;;;;;;5062267;28;20033;-68
2022/01/22 10:58:08;;;;;;;10.75;2.92;;;6.70;99.90;;;;;;5081887;28;20406;-69
2022/01/22 11:00:35;;;;;;;11.07;2.15;;;6.70;99.90;;;;;;5073184;28;20051;-70
2022/01/22 11:03:22;;;;;;;10.50;2.92;;;6.70;99.90;;;;;;5061848;28;20045;-68
2022/01/22 11:05:47;;;;;;;6.32;2.10;;;6.70;99.90;;;;;;5062012;28;20102;-66
2022/01/22 11:08:14;;;;;;;8.23;2.20;;;7.00;99.90;;;;;;5056795;28;20076;-67
2022/01/22 11:10:40;;;;;;;14.02;2.90;;;6.70;99.90;;;;;;5068660;28;20052;-68
2022/01/22 11:13:07;;;;;;;17.58;2.70;;;6.70;99.90;;;;;;5066250;28;20257;-67
2022/01/22 11:15:34;;;;;;;17.90;2.95;;;6.70;99.90;;;;;;5067592;28;20037;-68
2022/01/22 11:18:02;;;;;;;9.40;2.78;;;6.70;99.90;;;;;;5067686;28;20045;-66
2022/01/22 11:20:31;;;;;;;14.43;3.10;;;6.90;99.90;;;;;;5061762;28;20052;-67
2022/01/22 11:22:58;;;;;;;12.30;3.28;;;6.80;99.90;;;;;;5066564;28;20490;-68
2022/01/22 11:25:25;;;;;;;8.90;2.73;;;6.70;99.90;;;;;;5063051;28;20045;-68
2022/01/22 11:27:51;;;;;;;13.57;3.33;;;6.70;99.90;;;;;;5049500;28;20287;-68
2022/01/22 11:30:18;;;;;;;12.63;3.33;;;6.70;99.90;;;;;;5062478;28;20048;-69
2022/01/22 11:32:48;;;;;;;13.98;3.00;;;6.70;99.90;;;;;;5060219;28;20498;-68
2022/01/22 11:35:20;;;;;;;11.80;3.15;;;6.70;99.90;;;;;;5084423;28;20045;-68
2022/01/22 11:38:00;;;;;;;16.58;3.65;;;6.70;99.90;;;;;;5075023;28;20112;-67
2022/01/22 11:40:27;;;;;;;18.38;3.75;;;6.70;99.90;;;;;;5070454;28;20044;-68
2022/01/22 11:42:57;;;;;;;12.00;3.20;;;6.70;99.90;;;;;;5067224;28;20093;-67
2022/01/22 11:45:33;;;;;;;15.85;3.33;;;6.70;99.90;;;;;;5067476;28;20050;-67
2022/01/22 11:48:18;;;;;;;15.13;3.33;;;6.70;99.90;;;;;;5062914;28;22033;-67
2022/01/22 11:50:50;;;;;;;14.85;3.90;;;6.70;99.90;;;;;;5052382;28;20060;-68
2022/01/22 11:53:36;;;;;;;16.30;4.15;;;6.70;99.90;;;;;;5052981;28;20136;-67
2022/01/22 11:56:10;;;;;;;10.25;3.75;;;6.80;99.90;;;;;;5062743;28;20112;-67
2022/01/22 11:59:06;;;;;;;15.30;4.25;;;6.70;99.90;;;;;;5082987;28;20072;-68
2022/01/22 12:01:40;;;;;;;18.27;4.05;;;6.70;99.90;;;;;;5062455;28;20037;-67
2022/01/22 12:04:08;;;;;;;17.85;4.10;;;6.80;99.90;;;;;;5048467;28;20050;-67
2022/01/22 12:06:35;;;;;;;20.88;3.85;;;6.80;99.90;;;;;;5047174;28;20083;-67
2022/01/22 12:09:12;;;;;;;21.15;4.00;;;6.80;99.90;;;;;;5047523;28;20088;-68
2022/01/22 12:14:47;;;;;;;17.15;4.00;;;6.80;99.90;;;;;;5045706;28;20053;-67
2022/01/22 12:17:19;;;;;;;25.23;4.38;;;6.80;99.90;;;;;;5063893;28;20064;-66
2022/01/22 12:22:33;;;;;;;17.50;4.32;;;6.80;99.90;;;;;;5058301;28;20108;-69
2022/01/22 12:25:08;;;;;;;18.17;4.40;;;6.80;99.90;;;;;;5081486;28;20045;-68
2022/01/22 12:27:44;;;;;;;22.45;4.43;;;6.80;99.90;;;;;;5056698;28;20060;-67
2022/01/22 12:30:10;;;;;;;19.23;4.82;;;6.80;99.90;;;;;;5062243;28;20502;-67
2022/01/22 12:32:51;;;;;;;19.42;5.13;;;6.80;99.90;;;;;;5054949;28;20076;-69
2022/01/22 12:35:31;;;;;;;18.73;5.60;;;6.80;99.90;;;;;;5073484;28;20045;-66
2022/01/22 12:40:57;;;;;;;20.38;6.05;;;6.80;99.90;;;;;;5071870;28;20444;-67
2022/01/22 12:43:32;;;;;;;26.27;7.05;;;6.80;99.90;;;;;;5058415;28;20043;-68
2022/01/22 12:46:03;;;;;;;24.35;6.70;;;6.90;99.90;;;;;;5053826;28;20044;-68
2022/01/22 12:48:36;;;;;;;20.23;6.45;;;6.80;99.90;;;;;;5057368;28;20042;-68
2022/01/22 12:51:04;;;;;;;22.02;5.68;;;6.90;99.90;;;;;;5070392;28;20112;-68
2022/01/22 12:53:31;;;;;;;22.95;6.22;;;6.80;99.90;;;;;;5068803;28;20033;-68
2022/01/22 12:58:30;;;;;;;20.85;6.40;;;6.90;99.90;;;;;;5052844;28;20049;-68
2022/01/22 13:01:19;;;;;;;28.38;6.63;;;6.80;99.90;;;;;;5065839;28;20033;-68
2022/01/22 13:03:48;;;;;;;25.73;6.43;;;6.90;99.90;;;;;;5104464;28;20061;-67
2022/01/22 13:06:14;;;;;;;20.92;5.15;;;6.90;99.90;;;;;;5082449;28;20417;-66
2022/01/22 13:08:40;;;;;;;26.40;7.10;;;6.90;99.90;;;;;;5059576;28;20041;-66
2022/01/22 13:11:08;;;;;;;17.25;4.35;;;6.90;99.90;;;;;;5076902;28;20052;-66
2022/01/22 13:13:37;;;;;;;21.98;4.97;;;6.90;99.90;;;;;;5056499;28;20041;-66
2022/01/22 13:16:08;;;;;;;20.27;4.47;;;8.10;99.90;;;;;;5097092;28;20049;-68
2022/01/22 13:18:42;;;;;;;15.95;3.88;;;6.90;99.90;;;;;;5069980;28;20064;-67
2022/01/22 13:21:09;;;;;;;13.65;3.25;;;6.90;99.90;;;;;;5058827;28;20052;-67
2022/01/22 13:23:35;;;;;;;14.23;3.83;;;7.10;99.90;;;;;;5078774;28;20067;-66
2022/01/22 13:26:01;;;;;;;25.73;4.43;;;6.90;99.90;;;;;;5083335;28;20379;-66
2022/01/22 13:28:34;;;;;;;15.43;4.13;;;6.80;99.90;;;;;;5081215;28;20037;-68
2022/01/22 13:31:08;;;;;;;14.05;3.95;;;6.90;99.90;;;;;;5054509;28;20075;-67
2022/01/22 13:34:03;;;;;;;21.27;4.63;;;6.90;99.90;;;;;;5065999;28;20063;-69
2022/01/22 13:36:51;;;;;;;23.23;5.22;;;6.90;99.90;;;;;;5065453;28;20447;-67
2022/01/22 13:39:49;;;;;;;21.00;5.15;;;6.80;99.90;;;;;;5054732;28;20491;-68
2022/01/22 13:45:08;;;;;;;13.70;3.85;;;6.70;99.90;;;;;;5054474;28;20044;-68
2022/01/22 13:47:44;;;;;;;18.80;4.45;;;6.70;99.90;;;;;;5052099;28;20065;-67
2022/01/22 13:50:10;;;;;;;12.15;3.47;;;6.70;99.90;;;;;;5061150;28;20041;-67
2022/01/22 13:52:36;;;;;;;13.88;3.90;;;6.70;99.90;;;;;;5064005;28;20037;-67
2022/01/22 13:55:02;;;;;;;14.50;3.50;;;6.70;99.90;;;;;;5051581;28;20091;-66
2022/01/22 13:57:33;;;;;;;15.57;3.20;;;6.60;99.90;;;;;;5062804;28;20055;-67
2022/01/22 14:00:06;;;;;;;11.50;2.60;;;6.60;99.90;;;;;;5080779;28;20045;-67
2022/01/22 14:05:29;;;;;;;17.38;3.45;;;6.60;99.90;;;;;;5056001;28;20067;-70
2022/01/22 14:08:01;;;;;;;18.30;4.00;;;6.60;99.90;;;;;;5053028;28;20044;-67
2022/01/22 14:10:28;;;;;;;14.23;3.70;;;6.60;99.90;;;;;;5053584;28;20050;-68
2022/01/22 14:13:05;;;;;;;20.98;3.80;;;6.70;99.90;;;;;;5054802;28;20045;-67
2022/01/22 14:15:35;;;;;;;14.60;3.45;;;6.60;99.90;;;;;;5058606;28;20041;-68
2022/01/22 14:18:14;;;;;;;20.42;3.60;;;6.50;99.90;;;;;;5051841;28;20538;-66
2022/01/22 14:21:04;;;;;;;10.63;3.35;;;6.50;99.90;;;;;;5053031;28;20053;-67
2022/01/22 14:23:32;;;;;;;11.35;3.17;;;6.50;99.90;;;;;;5047822;28;20048;-68
2022/01/22 14:26:02;;;;;;;15.67;4.03;;;6.50;99.90;;;;;;5054039;28;20598;-68
2022/01/22 14:28:40;;;;;;;13.50;2.83;;;6.60;99.90;;;;;;5053701;28;20060;-69
2022/01/22 14:31:29;;;;;;;19.85;3.17;;;6.50;99.90;;;;;;5062330;28;20098;-66
2022/01/22 14:33:58;;;;;;;14.13;3.67;;;6.60;99.90;;;;;;5058021;28;20072;-68
2022/01/22 14:36:27;;;;;;;12.98;2.50;;;6.50;99.90;;;;;;5073613;28;20409;-67
2022/01/22 14:39:11;;;;;;;13.73;2.80;;;6.50;99.90;;;;;;5067808;28;20457;-67
2022/01/22 14:44:55;;;;;;;7.63;2.53;;;6.40;99.90;;;;;;5067365;28;20053;-66
2022/01/22 14:47:26;;;;;;;13.48;3.25;;;6.40;99.90;;;;;;5069782;28;20041;-68
2022/01/22 14:49:54;;;;;;;11.75;2.83;;;6.40;99.90;;;;;;5070513;28;20072;-67
2022/01/22 14:52:22;;;;;;;13.65;3.20;;;6.40;99.90;;;;;;5074804;28;20064;-68
2022/01/22 14:54:50;;;;;;;11.50;2.25;;;6.40;99.90;;;;;;5067151;28;20072;-67
2022/01/22 14:57:21;;;;;;;11.73;2.20;;;6.60;99.90;;;;;;5060387;28;20049;-68